Time;durP1;ratioP1;P1;durP2;ratioP2;P2;SDS_P1;SDS_P2;PMS_P1;PMS_P2;Temp;Humidity;BMP_temperature;BMP_pressure;BME280_temperature;BME280_humidity;BME280_pressure;Samples;Min_cycle;Max_cycle;Signal;HPM_P1;HPM_P2
2022/01/02 00:02:02;;;;;;;1.33;1.23;;;6.90;93.90;6.00;98891.00;;;;5096630;28;20278;-77
2022/01/02 00:04:36;;;;;;;0.80;0.80;;;6.80;93.30;6.10;98867.00;;;;5096517;28;20244;-79
2022/01/02 00:07:06;;;;;;;1.60;1.50;;;6.90;93.30;6.10;98901.00;;;;5096696;28;20328;-80
2022/01/02 00:09:35;;;;;;;2.10;2.00;;;6.80;92.60;6.00;98897.00;;;;5096694;28;20595;-78
2022/01/02 00:12:07;;;;;;;2.43;1.43;;;6.70;91.80;5.70;98893.00;;;;5096439;28;20536;-78
2022/01/02 00:14:36;;;;;;;1.40;1.30;;;6.50;91.30;5.80;98886.00;;;;5096625;28;20613;-79
2022/01/02 00:17:07;;;;;;;2.03;1.83;;;6.60;92.20;5.70;98887.00;;;;5096439;28;20232;-76
2022/01/02 00:19:37;;;;;;;1.70;1.60;;;6.50;92.10;5.70;98883.00;;;;5096412;28;20626;-76
2022/01/02 00:22:13;;;;;;;1.33;1.33;;;6.40;91.70;5.70;98847.00;;;;5096391;28;20745;-77
2022/01/02 00:24:43;;;;;;;5.23;2.87;;;6.40;92.00;5.60;98881.00;;;;5096257;28;20259;-75
2022/01/02 00:27:13;;;;;;;3.10;1.67;;;6.40;91.80;5.70;98883.00;;;;5096233;28;20226;-75
2022/01/02 00:29:43;;;;;;;2.43;2.23;;;6.40;91.70;5.70;98880.00;;;;5096203;28;20259;-76
2022/01/02 00:32:12;;;;;;;1.97;1.87;;;6.40;91.30;5.60;98875.00;;;;5096103;28;20213;-76
2022/01/02 00:34:41;;;;;;;3.47;2.17;;;6.30;91.30;5.50;98870.00;;;;5096272;28;20296;-75
2022/01/02 00:37:09;;;;;;;0.93;0.93;;;6.30;92.40;5.60;98870.00;;;;5096146;28;20194;-75
2022/01/02 00:39:37;;;;;;;2.83;1.83;;;6.30;91.80;5.50;98863.00;;;;5096073;28;20214;-75
2022/01/02 00:42:10;;;;;;;2.00;1.90;;;6.30;91.70;5.50;98875.00;;;;5095845;28;20646;-76
2022/01/02 00:44:57;;;;;;;1.70;1.60;;;6.30;91.80;5.40;98865.00;;;;5095975;28;20228;-76
2022/01/02 00:47:33;;;;;;;3.30;2.37;;;6.30;91.50;5.40;98836.00;;;;5096125;28;20225;-73
2022/01/02 00:50:09;;;;;;;1.10;1.10;;;6.20;91.90;5.40;98849.00;;;;5095915;28;20230;-75
2022/01/02 00:52:41;;;;;;;1.70;1.60;;;6.20;91.80;5.40;98851.00;;;;5095982;28;20197;-75
2022/01/02 00:55:11;;;;;;;1.67;1.57;;;6.10;91.60;5.40;98848.00;;;;5095882;28;20283;-76
2022/01/02 00:57:42;;;;;;;1.60;1.43;;;6.10;92.00;5.40;98838.00;;;;5095875;28;20195;-76
2022/01/02 01:00:15;;;;;;;1.00;1.00;;;6.10;92.00;5.30;98838.00;;;;5095845;28;20292;-73
2022/01/02 01:02:47;;;;;;;1.27;1.27;;;6.10;91.60;5.30;98836.00;;;;5095747;28;20704;-76
2022/01/02 01:05:21;;;;;;;2.20;2.00;;;6.00;91.50;5.20;98839.00;;;;5095772;28;20197;-76
2022/01/02 01:07:51;;;;;;;1.80;1.70;;;6.00;91.80;5.20;98832.00;;;;5095746;28;20209;-76
2022/01/02 01:10:22;;;;;;;1.80;1.70;;;6.00;91.70;5.20;98827.00;;;;5095805;28;20602;-76
2022/01/02 01:12:52;;;;;;;1.73;1.67;;;5.90;91.90;5.20;98820.00;;;;5095582;28;20697;-76
2022/01/02 01:15:21;;;;;;;1.53;1.43;;;5.90;92.30;5.20;98825.00;;;;5095818;28;20530;-74
2022/01/02 01:17:49;;;;;;;2.33;1.83;;;5.90;91.50;5.00;98822.00;;;;5095670;28;20313;-75
2022/01/02 01:20:16;;;;;;;1.87;1.77;;;5.90;91.00;5.00;98810.00;;;;5095705;28;20200;-76
2022/01/02 01:22:46;;;;;;;1.90;1.57;;;5.80;91.40;4.90;98812.00;;;;5095521;28;20214;-75
2022/01/02 01:25:16;;;;;;;1.63;1.53;;;5.80;91.50;5.00;98811.00;;;;5095621;28;20237;-76
2022/01/02 01:27:46;;;;;;;1.87;1.77;;;5.70;91.90;5.00;98819.00;;;;5095616;28;20197;-76
2022/01/02 01:30:16;;;;;;;1.07;1.07;;;5.70;91.90;5.00;98821.00;;;;5095409;28;20638;-76
2022/01/02 01:32:46;;;;;;;0.83;0.83;;;5.80;91.80;4.90;98794.00;;;;5095480;28;20625;-76
2022/01/02 01:35:14;;;;;;;2.23;2.03;;;5.80;91.90;4.80;98805.00;;;;5095351;28;20235;-76
2022/01/02 01:37:41;;;;;;;1.03;1.03;;;5.70;91.50;4.90;98773.00;;;;5095351;28;20351;-74
2022/01/02 01:40:13;;;;;;;1.63;1.53;;;5.70;91.80;4.80;98809.00;;;;5095223;28;20214;-76
2022/01/02 01:42:42;;;;;;;1.33;1.23;;;5.70;91.70;4.90;98804.00;;;;5095334;28;20272;-76
2022/01/02 01:45:29;;;;;;;1.70;1.60;;;5.60;92.00;4.70;98801.00;;;;5095167;28;20209;-76
2022/01/02 01:47:59;;;;;;;2.00;1.90;;;5.60;91.70;4.70;98802.00;;;;5112348;28;20229;-76
2022/01/02 01:50:32;;;;;;;1.87;1.77;;;5.50;91.80;4.70;98807.00;;;;5095167;28;20207;-76
2022/01/02 01:53:01;;;;;;;1.10;1.10;;;5.50;92.20;4.70;98803.00;;;;5095290;28;20198;-76
2022/01/02 01:55:27;;;;;;;1.30;1.30;;;5.50;91.90;4.80;98801.00;;;;5097553;28;20293;-76
2022/01/02 01:57:56;;;;;;;0.83;0.83;;;5.50;92.30;4.80;98801.00;;;;5098618;28;20648;-76
2022/01/02 02:00:24;;;;;;;0.80;0.80;;;5.50;92.10;4.70;98775.00;;;;5098722;28;20238;-76
2022/01/02 02:02:51;;;;;;;1.27;1.23;;;5.50;91.90;4.70;98787.00;;;;5098415;28;20223;-76
2022/01/02 02:05:18;;;;;;;1.20;1.20;;;5.40;91.60;4.70;98795.00;;;;5098624;28;20205;-76
2022/01/02 02:07:45;;;;;;;1.40;1.30;;;5.50;91.80;4.70;98788.00;;;;5098505;28;20236;-76
2022/01/02 02:10:17;;;;;;;1.77;1.67;;;5.50;91.60;4.60;98781.00;;;;5098568;28;20296;-76
2022/01/02 02:12:47;;;;;;;1.60;1.50;;;5.40;91.50;4.60;98777.00;;;;5098399;28;20197;-76
2022/01/02 02:15:16;;;;;;;1.60;1.33;;;5.30;91.60;4.60;98791.00;;;;5098417;28;20206;-76
2022/01/02 02:17:45;;;;;;;4.63;1.67;;;5.30;91.60;4.60;98772.00;;;;5098291;28;20209;-75
2022/01/02 02:20:16;;;;;;;1.43;1.30;;;5.40;91.40;4.50;98778.00;;;;5098215;28;20227;-76
2022/01/02 02:22:51;;;;;;;1.30;1.20;;;5.30;92.00;4.40;98747.00;;;;5098605;28;20198;-76
2022/01/02 02:25:20;;;;;;;2.37;1.00;;;5.20;91.00;4.40;98751.00;;;;5098580;28;20271;-75
2022/01/02 02:27:52;;;;;;;1.07;1.07;;;5.20;91.40;4.40;98751.00;;;;5098637;28;20202;-75
2022/01/02 02:30:23;;;;;;;1.40;1.30;;;5.20;92.20;4.40;98750.00;;;;5098358;28;20659;-76
2022/01/02 02:32:54;;;;;;;1.10;1.10;;;5.20;91.60;4.50;98752.00;;;;5098451;28;20354;-76
2022/01/02 02:35:22;;;;;;;0.90;0.90;;;5.20;92.30;4.50;98746.00;;;;5098181;28;20693;-76
2022/01/02 02:37:49;;;;;;;0.70;0.70;;;5.30;93.10;4.50;98735.00;;;;5098510;28;20211;-76
2022/01/02 02:40:22;;;;;;;1.60;1.50;;;5.40;93.50;4.70;98741.00;;;;5098356;28;20213;-75
2022/01/02 02:42:52;;;;;;;1.70;1.60;;;5.40;94.10;4.70;98728.00;;;;5098230;28;20261;-76
2022/01/02 02:51:09;;;;;;;3.60;1.73;;;5.60;94.50;4.80;98720.00;;;;5115257;28;20229;-75
2022/01/02 02:53:40;;;;;;;2.50;1.87;;;5.60;94.70;4.70;98710.00;;;;5098402;28;20237;-76
2022/01/02 02:56:15;;;;;;;1.67;1.17;;;5.60;94.70;4.80;98702.00;;;;5097852;28;20210;-76
2022/01/02 02:58:42;;;;;;;2.13;1.90;;;5.60;94.90;4.80;98695.00;;;;5097921;28;20225;-75
2022/01/02 03:01:11;;;;;;;0.90;0.90;;;5.60;94.80;4.70;98689.00;;;;5098367;28;20225;-75
2022/01/02 03:03:38;;;;;;;5.60;1.63;;;5.60;94.70;4.80;98682.00;;;;5097659;28;20223;-76
2022/01/02 03:06:06;;;;;;;1.30;1.23;;;5.60;95.10;4.80;98699.00;;;;5097912;28;20205;-76
2022/01/02 03:08:34;;;;;;;1.40;1.40;;;5.60;95.10;4.90;98696.00;;;;5097949;28;20212;-76
2022/01/02 03:11:06;;;;;;;1.30;1.30;;;5.60;95.40;4.90;98695.00;;;;5097635;28;20206;-76
2022/01/02 03:13:35;;;;;;;1.40;1.40;;;5.70;95.60;4.90;98701.00;;;;5097761;28;20221;-76
2022/01/02 03:16:02;;;;;;;1.20;1.20;;;5.70;95.60;4.90;98708.00;;;;5097427;28;20817;-75
2022/01/02 03:18:28;;;;;;;1.33;1.23;;;5.70;95.80;5.00;98703.00;;;;5097668;28;20266;-76
2022/01/02 03:20:55;;;;;;;1.23;1.23;;;5.70;95.80;5.00;98700.00;;;;5097628;28;20322;-74
2022/01/02 03:23:22;;;;;;;2.63;1.80;;;5.80;95.60;5.00;98698.00;;;;5097399;28;20214;-76
2022/01/02 03:25:48;;;;;;;0.90;0.90;;;5.80;95.20;4.90;98697.00;;;;5097554;28;20317;-76
2022/01/02 03:28:15;;;;;;;1.80;1.70;;;5.70;94.90;4.90;98686.00;;;;5097488;28;20284;-76
2022/01/02 03:30:44;;;;;;;1.07;1.07;;;5.70;94.90;4.90;98701.00;;;;5097617;28;20220;-76
2022/01/02 03:33:11;;;;;;;1.53;1.43;;;5.70;94.30;4.80;98674.00;;;;5097421;28;20260;-75
2022/01/02 03:35:38;;;;;;;0.97;0.97;;;5.60;94.50;4.80;98687.00;;;;5097553;28;20194;-76
2022/01/02 03:38:05;;;;;;;1.87;1.63;;;5.60;93.10;4.60;98695.00;;;;5097502;28;20225;-76
2022/01/02 03:40:32;;;;;;;1.60;1.53;;;5.40;92.50;4.60;98691.00;;;;5097893;28;20656;-75
2022/01/02 03:43:01;;;;;;;1.07;1.07;;;5.40;92.70;4.60;98689.00;;;;5097549;28;20298;-76
2022/01/02 03:45:28;;;;;;;1.20;1.20;;;5.40;92.60;4.50;98690.00;;;;5097793;28;20288;-76
2022/01/02 03:47:54;;;;;;;1.40;1.40;;;5.30;92.50;4.30;98665.00;;;;5097961;28;20226;-76
2022/01/02 03:50:21;;;;;;;1.10;1.00;;;5.20;91.60;4.40;98668.00;;;;5114686;28;20274;-76
2022/01/02 03:52:48;;;;;;;1.63;1.50;;;5.20;92.60;4.40;98661.00;;;;5097547;28;20560;-76
2022/01/02 03:55:15;;;;;;;2.90;2.70;;;5.20;92.30;4.40;98665.00;;;;5097795;28;20653;-76
2022/01/02 03:57:42;;;;;;;1.07;1.07;;;5.20;92.20;4.40;98656.00;;;;5097828;28;20197;-74
2022/01/02 04:00:15;;;;;;;1.90;1.80;;;5.10;91.90;4.40;98664.00;;;;5098026;28;20229;-76
2022/01/02 04:02:42;;;;;;;1.63;1.53;;;5.10;92.10;4.30;98662.00;;;;5098189;28;20236;-76
2022/01/02 04:05:12;;;;;;;1.30;1.30;;;5.10;91.90;4.20;98659.00;;;;5108890;28;20322;-75
2022/01/02 04:07:41;;;;;;;2.10;1.77;;;5.10;91.90;4.30;98644.00;;;;5109339;28;20614;-75
2022/01/02 04:10:11;;;;;;;0.70;0.70;;;5.00;92.00;4.20;98665.00;;;;5100970;28;20242;-76
2022/01/02 04:12:39;;;;;;;4.67;1.80;;;5.00;91.80;4.10;98652.00;;;;5097128;28;20254;-75
2022/01/02 04:15:09;;;;;;;1.63;1.20;;;4.90;91.70;4.10;98659.00;;;;5115354;28;20224;-75
2022/01/02 04:17:37;;;;;;;1.90;1.63;;;4.90;92.00;4.10;98655.00;;;;5097814;28;20686;-76
2022/01/02 04:20:08;;;;;;;1.17;1.17;;;4.90;92.20;4.10;98660.00;;;;5125445;27;20261;-76
2022/01/02 04:22:36;;;;;;;2.37;1.13;;;4.80;92.30;4.10;98634.00;;;;5108939;28;20242;-76
2022/01/02 04:25:03;;;;;;;1.50;1.40;;;4.90;92.20;3.90;98652.00;;;;5104684;28;20871;-75
2022/01/02 04:27:30;;;;;;;0.90;0.90;;;4.80;91.70;3.90;98639.00;;;;5096810;28;20221;-76
2022/01/02 04:29:57;;;;;;;1.37;1.37;;;4.70;92.20;4.00;98639.00;;;;5096717;28;20280;-76
2022/01/02 04:32:27;;;;;;;0.83;0.83;;;4.80;92.50;4.00;98620.00;;;;5096661;28;20692;-76
2022/01/02 04:34:55;;;;;;;1.63;1.53;;;4.80;92.50;4.00;98618.00;;;;5096198;28;20513;-75
2022/01/02 04:37:22;;;;;;;1.90;1.03;;;4.80;92.60;4.10;98633.00;;;;5096432;28;20202;-76
2022/01/02 04:39:48;;;;;;;1.57;1.47;;;4.90;92.80;4.10;98637.00;;;;5096382;28;20265;-76
2022/01/02 04:42:15;;;;;;;1.93;1.83;;;4.90;92.70;4.10;98630.00;;;;5096254;28;20343;-76
2022/01/02 04:44:41;;;;;;;1.50;1.50;;;4.90;93.00;4.00;98627.00;;;;5096093;28;20536;-75
2022/01/02 04:47:08;;;;;;;0.87;0.87;;;4.90;93.20;4.10;98636.00;;;;5096387;28;20197;-75
2022/01/02 04:49:35;;;;;;;1.73;1.63;;;4.90;94.60;4.10;98626.00;;;;5096701;28;20629;-76
2022/01/02 04:52:02;;;;;;;0.70;0.70;;;4.90;94.00;4.20;98614.00;;;;5096363;28;20629;-76
2022/01/02 04:54:28;;;;;;;2.13;2.03;;;5.00;93.70;4.20;98612.00;;;;5096143;28;20205;-76
2022/01/02 04:56:57;;;;;;;1.47;1.37;;;5.00;94.40;4.20;98614.00;;;;5095919;28;20236;-76
2022/01/02 04:59:23;;;;;;;1.53;1.43;;;5.00;93.70;4.00;98604.00;;;;5096075;28;20206;-75
2022/01/02 05:01:50;;;;;;;2.00;1.80;;;5.00;92.40;4.10;98604.00;;;;5096024;28;20233;-76
2022/01/02 05:04:19;;;;;;;1.10;1.03;;;4.80;92.90;4.20;98607.00;;;;5096133;28;20558;-76
2022/01/02 05:06:46;;;;;;;2.57;2.30;;;5.00;92.60;4.20;98608.00;;;;5096200;28;20193;-76
2022/01/02 05:09:12;;;;;;;3.63;1.57;;;4.90;91.80;4.20;98609.00;;;;5096090;28;20529;-76
2022/01/02 05:11:42;;;;;;;1.33;1.23;;;5.00;91.30;4.20;98597.00;;;;5095939;28;20197;-76
2022/01/02 05:14:11;;;;;;;1.17;1.13;;;4.90;90.60;4.10;98594.00;;;;5095973;28;20251;-76
2022/01/02 05:16:39;;;;;;;1.00;1.00;;;4.90;90.30;4.10;98592.00;;;;5095833;28;20237;-75
2022/01/02 05:19:06;;;;;;;2.67;2.47;;;4.90;90.50;4.00;98580.00;;;;5095941;28;20320;-75
2022/01/02 05:21:32;;;;;;;1.60;1.57;;;4.80;90.30;4.00;98582.00;;;;5096043;28;20288;-76
2022/01/02 05:24:00;;;;;;;1.90;1.80;;;4.80;90.70;4.10;98572.00;;;;5095454;28;20862;-76
2022/01/02 05:26:26;;;;;;;1.20;1.20;;;4.80;90.90;4.10;98574.00;;;;5095853;28;20261;-76
2022/01/02 05:28:52;;;;;;;1.67;1.57;;;4.90;91.20;4.20;98572.00;;;;5096151;28;20222;-75
2022/01/02 05:31:19;;;;;;;0.73;0.73;;;4.90;91.40;4.20;98567.00;;;;5099356;28;20213;-75
2022/01/02 05:33:46;;;;;;;1.37;1.27;;;5.00;91.80;4.30;98578.00;;;;5099443;28;20230;-76
2022/01/02 05:36:12;;;;;;;1.03;1.03;;;5.00;92.00;4.30;98561.00;;;;5099220;28;20225;-76
2022/01/02 05:38:39;;;;;;;0.90;0.90;;;5.10;92.50;4.40;98560.00;;;;5099299;28;20280;-76
2022/01/02 05:41:08;;;;;;;1.00;1.00;;;5.20;92.90;4.40;98565.00;;;;5099216;28;20218;-75
2022/01/02 05:43:35;;;;;;;1.53;1.43;;;5.30;93.20;4.50;98561.00;;;;5099245;28;20314;-76
2022/01/02 05:46:05;;;;;;;1.07;1.07;;;5.30;93.50;4.60;98560.00;;;;5099256;28;20266;-76
2022/01/02 05:48:33;;;;;;;1.60;1.40;;;5.30;93.50;4.60;98530.00;;;;5099089;28;20210;-74
2022/01/02 05:51:01;;;;;;;0.90;0.90;;;5.40;93.80;4.60;98556.00;;;;5099296;28;20258;-75
2022/01/02 05:53:29;;;;;;;2.47;1.33;;;5.40;94.00;4.70;98563.00;;;;5099001;28;20245;-76
2022/01/02 05:55:56;;;;;;;1.57;1.30;;;5.50;94.00;4.70;98549.00;;;;5099179;28;20281;-76
2022/01/02 05:58:25;;;;;;;3.77;1.70;;;5.50;93.90;4.70;98551.00;;;;5099179;28;20229;-76
2022/01/02 06:00:52;;;;;;;6.17;1.97;;;5.50;93.80;4.70;98542.00;;;;5099434;28;20205;-76
2022/01/02 06:03:21;;;;;;;2.13;2.03;;;5.50;93.90;4.80;98539.00;;;;5098862;28;20229;-75
2022/01/02 06:05:47;;;;;;;1.67;1.57;;;5.50;93.90;4.70;98544.00;;;;5099451;28;20284;-76
2022/01/02 06:08:16;;;;;;;1.77;1.67;;;5.60;93.80;4.80;98518.00;;;;5099358;28;20209;-76
2022/01/02 06:10:43;;;;;;;1.03;1.03;;;5.60;93.90;4.80;98540.00;;;;5099019;28;20205;-76
2022/01/02 06:13:12;;;;;;;1.00;1.00;;;5.60;93.80;4.80;98547.00;;;;5098986;28;20298;-76
2022/01/02 06:15:39;;;;;;;1.33;1.23;;;5.60;94.00;4.80;98535.00;;;;5099319;28;20313;-76
2022/01/02 06:18:06;;;;;;;0.90;0.90;;;5.60;94.00;4.90;98543.00;;;;5099408;28;20310;-76
2022/01/02 06:20:32;;;;;;;0.90;0.90;;;5.70;94.40;4.90;98539.00;;;;5099173;28;20225;-76
2022/01/02 06:22:59;;;;;;;2.17;1.90;;;5.70;94.30;4.90;98523.00;;;;5098890;28;20219;-76
2022/01/02 06:25:27;;;;;;;0.83;0.83;;;5.70;94.30;4.90;98496.00;;;;5098857;28;20364;-74
2022/01/02 06:27:54;;;;;;;1.17;1.13;;;5.70;94.40;5.00;98514.00;;;;5098775;28;20198;-76
2022/01/02 06:30:21;;;;;;;0.90;0.90;;;5.70;94.40;5.00;98495.00;;;;5098749;28;20434;-76
2022/01/02 06:32:54;;;;;;;1.10;1.10;;;5.80;94.40;5.00;98529.00;;;;5098760;28;20231;-76
2022/01/02 06:35:23;;;;;;;0.93;0.93;;;5.80;94.30;5.10;98530.00;;;;5098707;28;20555;-76
2022/01/02 06:37:53;;;;;;;0.83;0.83;;;5.80;94.20;5.00;98541.00;;;;5098637;28;20221;-75
2022/01/02 06:40:21;;;;;;;1.00;1.00;;;5.80;94.10;5.10;98538.00;;;;5097955;28;20221;-76
2022/01/02 06:42:48;;;;;;;1.67;1.57;;;5.90;94.30;5.20;98553.00;;;;5098381;28;20227;-76
2022/01/02 06:45:15;;;;;;;1.13;1.13;;;5.90;94.20;5.00;98554.00;;;;5098117;28;20308;-76
2022/01/02 06:47:42;;;;;;;2.77;2.50;;;5.80;93.20;5.00;98509.00;;;;5098197;28;20724;-76
2022/01/02 06:50:12;;;;;;;2.27;2.17;;;5.80;93.30;5.00;98528.00;;;;5098504;28;20264;-76
2022/01/02 06:52:39;;;;;;;1.80;1.70;;;5.80;92.40;4.80;98530.00;;;;5098129;28;20294;-76
2022/01/02 06:55:06;;;;;;;1.73;1.63;;;5.70;92.30;5.00;98521.00;;;;5098026;28;20202;-76
2022/01/02 06:57:33;;;;;;;1.67;1.57;;;5.70;92.10;4.90;98506.00;;;;5098073;28;20296;-76
2022/01/02 06:59:59;;;;;;;0.87;0.87;;;5.70;92.00;4.90;98510.00;;;;5098020;28;20542;-76
2022/01/02 07:02:26;;;;;;;1.77;1.67;;;5.70;92.30;4.90;98502.00;;;;5098305;28;20206;-75
2022/01/02 07:04:52;;;;;;;1.53;1.43;;;5.60;92.40;5.00;98508.00;;;;5097810;28;20349;-76
2022/01/02 07:07:20;;;;;;;0.90;0.90;;;5.70;93.10;5.00;98504.00;;;;5098010;28;20661;-76
2022/01/02 07:09:46;;;;;;;0.90;0.90;;;5.70;92.90;5.00;98512.00;;;;5097845;28;20290;-76
2022/01/02 07:12:15;;;;;;;1.47;1.40;;;5.80;93.10;5.00;98518.00;;;;5097871;28;20198;-76
2022/01/02 07:14:41;;;;;;;0.97;0.97;;;5.80;93.20;4.90;98501.00;;;;5097846;28;20341;-76
2022/01/02 07:17:10;;;;;;;1.00;1.00;;;5.70;92.70;4.90;98502.00;;;;5097547;28;20317;-76
2022/01/02 07:19:39;;;;;;;1.00;1.00;;;5.70;93.10;4.90;98500.00;;;;5097522;28;20293;-76
2022/01/02 07:22:06;;;;;;;1.20;1.20;;;5.70;93.10;5.00;98501.00;;;;5097222;28;20759;-76
2022/01/02 07:24:35;;;;;;;1.10;1.10;;;5.80;93.10;4.90;98505.00;;;;5097543;28;20311;-76
2022/01/02 07:27:02;;;;;;;1.70;1.67;;;5.70;93.00;5.00;98495.00;;;;5097387;28;20197;-75
2022/01/02 07:29:29;;;;;;;0.87;0.87;;;5.70;93.20;5.00;98503.00;;;;5097487;28;20331;-76
2022/01/02 07:31:56;;;;;;;1.37;1.27;;;5.80;93.30;5.10;98497.00;;;;5097468;28;20220;-76
2022/01/02 07:34:22;;;;;;;1.43;1.37;;;5.80;93.60;5.00;98500.00;;;;5114321;28;20252;-77
2022/01/02 07:36:49;;;;;;;1.10;1.10;;;5.80;93.40;5.10;98499.00;;;;5097497;28;20194;-76
2022/01/02 07:39:15;;;;;;;2.17;1.40;;;5.80;93.40;5.10;98504.00;;;;5097265;28;20229;-76
2022/01/02 07:41:43;;;;;;;1.77;1.67;;;5.80;93.20;5.00;98514.00;;;;5097407;28;20210;-76
2022/01/02 07:44:10;;;;;;;1.73;1.63;;;5.80;92.90;4.80;98513.00;;;;5097082;28;20218;-76
2022/01/02 07:46:38;;;;;;;1.47;1.33;;;5.70;92.50;4.80;98515.00;;;;5097209;28;20510;-76
2022/01/02 07:49:05;;;;;;;1.60;1.50;;;5.70;93.10;5.00;98506.00;;;;5097252;28;20214;-76
2022/01/02 07:51:31;;;;;;;1.37;1.37;;;5.70;93.40;5.00;98519.00;;;;5096416;28;20200;-76
2022/01/02 07:54:00;;;;;;;1.63;1.53;;;5.80;92.80;4.80;98515.00;;;;5096763;28;20194;-76
2022/01/02 07:56:29;;;;;;;3.00;1.23;;;5.70;91.70;4.90;98513.00;;;;5113837;28;20236;-76
2022/01/02 07:58:58;;;;;;;1.57;1.47;;;5.60;92.00;4.90;98517.00;;;;5096962;28;20198;-76
2022/01/02 08:01:24;;;;;;;1.20;1.20;;;5.70;91.70;4.90;98517.00;;;;5097092;28;20330;-76
2022/01/02 08:03:52;;;;;;;1.07;1.07;;;5.70;91.40;4.90;98515.00;;;;5096963;28;20221;-74
2022/01/02 08:06:18;;;;;;;1.47;1.37;;;5.70;91.20;4.80;98517.00;;;;5097196;28;20221;-74
2022/01/02 08:08:45;;;;;;;2.73;2.53;;;5.70;91.50;4.90;98521.00;;;;5096986;28;20254;-75
2022/01/02 08:11:12;;;;;;;1.37;1.37;;;5.70;92.00;5.00;98524.00;;;;5096988;28;20245;-76
2022/01/02 08:13:38;;;;;;;2.97;1.83;;;5.80;91.80;5.00;98508.00;;;;5113812;28;20233;-76
2022/01/02 08:16:05;;;;;;;5.67;2.07;;;5.70;91.70;5.10;98512.00;;;;5097718;28;20216;-76
2022/01/02 08:18:32;;;;;;;1.30;1.30;;;5.80;91.90;5.10;98509.00;;;;5099657;28;20218;-76
2022/01/02 08:20:58;;;;;;;2.80;1.27;;;5.80;91.90;5.30;98504.00;;;;5097430;28;20197;-76
2022/01/02 08:23:25;;;;;;;1.57;1.50;;;5.90;92.20;5.30;98513.00;;;;5108447;28;20322;-74
2022/01/02 08:25:54;;;;;;;2.37;2.17;;;6.00;91.50;5.30;98526.00;;;;5096988;28;20653;-76
2022/01/02 08:28:20;;;;;;;1.90;1.70;;;6.00;91.40;5.20;98514.00;;;;5097329;28;20239;-76
2022/01/02 08:30:49;;;;;;;0.90;0.90;;;6.00;90.60;5.10;98516.00;;;;5097869;28;20199;-75
2022/01/02 08:33:18;;;;;;;1.93;1.83;;;5.90;90.80;5.20;98512.00;;;;5103506;28;20182;-75
2022/01/02 08:35:48;;;;;;;1.40;1.30;;;5.90;91.10;5.10;98516.00;;;;5108769;28;20297;-76
2022/01/02 08:38:15;;;;;;;1.00;1.00;;;5.90;91.20;5.20;98499.00;;;;5108046;28;20205;-76
2022/01/02 08:40:42;;;;;;;1.03;1.03;;;5.90;91.30;5.20;98503.00;;;;5096552;28;20219;-76
2022/01/02 08:43:10;;;;;;;1.70;1.60;;;6.00;91.60;5.30;98490.00;;;;5096424;28;20206;-76
2022/01/02 08:45:38;;;;;;;1.40;1.30;;;6.00;91.60;5.30;98513.00;;;;5096296;28;20682;-76
2022/01/02 08:48:06;;;;;;;1.03;1.03;;;6.10;91.90;5.40;98500.00;;;;5096407;28;20205;-76
2022/01/02 08:50:35;;;;;;;0.93;0.93;;;6.20;92.20;5.40;98493.00;;;;5096158;28;20207;-76
2022/01/02 08:53:02;;;;;;;1.07;1.07;;;6.30;92.40;5.50;98503.00;;;;5096406;28;20284;-76
2022/01/02 08:55:28;;;;;;;1.10;1.10;;;6.30;92.60;5.60;98499.00;;;;5096207;28;20193;-76
2022/01/02 08:57:55;;;;;;;1.57;1.47;;;6.40;91.90;5.70;98517.00;;;;5096014;28;20383;-76
2022/01/02 09:00:23;;;;;;;0.90;0.90;;;6.40;92.10;5.90;98504.00;;;;5096093;28;20209;-76
2022/01/02 09:02:52;;;;;;;3.90;2.20;;;6.60;91.40;6.00;98501.00;;;;5095929;28;20369;-76
2022/01/02 09:05:19;;;;;;;1.43;1.33;;;6.70;91.40;6.00;98511.00;;;;5095930;28;20294;-76
2022/01/02 09:07:46;;;;;;;3.13;1.90;;;6.70;90.70;6.00;98517.00;;;;5096008;28;20203;-76
2022/01/02 09:10:16;;;;;;;1.30;1.30;;;6.70;90.60;5.90;98512.00;;;;5095853;28;20196;-75
2022/01/02 09:12:43;;;;;;;1.63;1.53;;;6.70;90.20;5.90;98502.00;;;;5096149;28;20569;-76
2022/01/02 09:15:10;;;;;;;0.87;0.87;;;6.70;90.00;6.00;98501.00;;;;5095840;28;20278;-75
2022/01/02 09:17:37;;;;;;;2.17;1.97;;;6.80;90.10;6.20;98498.00;;;;5095942;28;20210;-75
2022/01/02 09:20:05;;;;;;;1.63;1.57;;;6.80;90.00;6.30;98490.00;;;;5095995;28;20324;-76
2022/01/02 09:22:31;;;;;;;1.00;1.00;;;7.00;90.10;6.50;98489.00;;;;5096157;28;20301;-76
2022/01/02 09:24:59;;;;;;;0.93;0.93;;;7.10;90.90;6.60;98464.00;;;;5112711;28;20317;-75
2022/01/02 09:27:25;;;;;;;1.40;1.30;;;7.20;90.10;6.80;98489.00;;;;5096034;28;20197;-76
2022/01/02 09:29:52;;;;;;;1.60;1.50;;;7.30;90.30;6.80;98490.00;;;;5096659;28;20287;-76
2022/01/02 09:32:18;;;;;;;1.27;1.23;;;7.50;90.00;7.00;98502.00;;;;5095731;28;20264;-76
2022/01/02 09:34:45;;;;;;;1.57;1.47;;;7.60;89.90;7.00;98514.00;;;;5096058;28;20634;-76
2022/01/02 09:37:12;;;;;;;1.37;1.33;;;7.60;89.70;6.90;98526.00;;;;5095890;28;20230;-76
2022/01/02 09:39:39;;;;;;;1.30;1.20;;;7.60;89.80;7.00;98529.00;;;;5095824;28;20291;-76
2022/01/02 09:42:06;;;;;;;2.70;2.50;;;7.70;89.60;7.00;98536.00;;;;5095829;28;20225;-76
2022/01/02 09:44:33;;;;;;;3.27;2.97;;;7.60;89.10;6.90;98534.00;;;;5095614;28;20377;-76
2022/01/02 09:47:00;;;;;;;2.90;2.67;;;7.60;88.80;6.80;98527.00;;;;5095602;28;20214;-76
2022/01/02 09:49:27;;;;;;;1.43;1.33;;;7.60;89.00;6.80;98524.00;;;;5095439;28;20212;-76
2022/01/02 09:51:53;;;;;;;2.27;2.13;;;7.50;88.90;6.80;98519.00;;;;5095523;28;20296;-75
2022/01/02 09:54:20;;;;;;;2.97;1.97;;;7.60;89.40;6.90;98512.00;;;;5095641;28;20222;-78
2022/01/02 09:56:46;;;;;;;3.03;1.77;;;7.60;89.70;7.00;98512.00;;;;5095625;28;20263;-78
2022/01/02 09:59:14;;;;;;;1.53;1.50;;;7.70;89.60;7.10;98506.00;;;;5095451;28;20911;-77
2022/01/02 10:01:40;;;;;;;2.63;1.97;;;7.80;90.40;7.10;98499.00;;;;5095478;28;20684;-77
2022/01/02 10:04:07;;;;;;;1.17;1.17;;;7.80;89.70;7.20;98494.00;;;;5112208;28;20316;-74
2022/01/02 10:06:41;;;;;;;1.63;1.53;;;7.90;89.90;7.30;98472.00;;;;5095603;28;20197;-75
2022/01/02 10:09:14;;;;;;;1.53;1.47;;;7.90;89.90;7.30;98502.00;;;;5095445;28;20665;-76
2022/01/02 10:11:41;;;;;;;1.53;1.47;;;8.00;89.80;7.30;98507.00;;;;5095465;28;20211;-76
2022/01/02 10:14:10;;;;;;;1.37;1.33;;;8.00;90.10;7.30;98510.00;;;;5095613;28;20502;-79
2022/01/02 10:16:40;;;;;;;1.87;1.77;;;8.00;90.40;7.30;98484.00;;;;5098243;28;20737;-76
2022/01/02 10:19:26;;;;;;;0.93;0.93;;;8.00;90.50;7.30;98490.00;;;;5099297;28;20209;-73
2022/01/02 10:21:57;;;;;;;1.87;1.77;;;8.00;90.60;7.30;98491.00;;;;5098907;28;20236;-75
2022/01/02 10:24:27;;;;;;;1.10;1.10;;;8.10;91.20;7.30;98494.00;;;;5098728;28;20261;-75
2022/01/02 10:27:11;;;;;;;9.23;1.60;;;8.10;91.40;7.40;98484.00;;;;5098945;28;20238;-74
2022/01/02 10:29:48;;;;;;;1.53;1.33;;;8.10;91.60;7.40;98492.00;;;;5098823;28;20193;-76
2022/01/02 10:32:33;;;;;;;1.70;1.60;;;8.20;91.90;7.50;98488.00;;;;5098634;28;20673;-76
2022/01/02 10:35:16;;;;;;;3.03;1.20;;;8.20;92.20;7.50;98480.00;;;;5098254;28;20201;-75
2022/01/02 10:37:47;;;;;;;1.83;1.73;;;8.30;92.50;7.60;98460.00;;;;5098359;28;20204;-78
2022/01/02 10:40:28;;;;;;;0.70;0.70;;;8.30;92.40;7.70;98439.00;;;;5098264;28;20550;-76
2022/01/02 10:42:55;;;;;;;0.90;0.90;;;8.30;92.10;7.80;98421.00;;;;5098604;28;20205;-78
2022/01/02 10:45:40;;;;;;;1.50;1.40;;;8.50;91.80;7.90;98418.00;;;;5098281;28;20226;-75
2022/01/02 10:48:10;;;;;;;0.97;0.97;;;8.50;91.70;7.90;98420.00;;;;5098275;28;20278;-75
2022/01/02 10:50:40;;;;;;;0.80;0.80;;;8.60;90.90;7.90;98424.00;;;;5098385;28;20208;-75
2022/01/02 10:53:17;;;;;;;0.83;0.83;;;8.60;89.80;8.00;98426.00;;;;5098278;28;20239;-77
2022/01/02 10:55:46;;;;;;;0.90;0.90;;;8.70;89.80;8.10;98432.00;;;;5098071;28;20355;-77
2022/01/02 10:58:16;;;;;;;1.50;1.47;;;8.70;88.50;8.00;98433.00;;;;5098087;28;20241;-77
2022/01/02 11:00:44;;;;;;;1.10;1.10;;;8.80;87.70;8.10;98436.00;;;;5097829;28;20217;-76
2022/01/02 11:03:16;;;;;;;1.67;1.20;;;8.80;87.70;8.20;98444.00;;;;5097987;28;20221;-76
2022/01/02 11:05:48;;;;;;;0.63;0.63;;;8.90;87.40;8.30;98455.00;;;;5097870;28;20222;-75
2022/01/02 11:08:16;;;;;;;0.80;0.80;;;8.90;87.60;8.30;98446.00;;;;5097803;28;20236;-76
2022/01/02 11:10:43;;;;;;;1.20;1.20;;;9.00;87.70;8.40;98464.00;;;;5097654;28;20301;-76
2022/01/02 11:13:09;;;;;;;1.27;1.27;;;9.00;87.30;8.40;98447.00;;;;5097858;28;20325;-78
2022/01/02 11:15:36;;;;;;;1.83;1.73;;;9.10;87.30;8.40;98443.00;;;;5097766;28;20287;-77
2022/01/02 11:18:02;;;;;;;5.13;2.17;;;9.10;86.40;8.50;98454.00;;;;5097509;28;20236;-76
2022/01/02 11:20:33;;;;;;;4.30;2.33;;;9.10;87.20;8.60;98447.00;;;;5097472;28;20222;-80
2022/01/02 11:23:12;;;;;;;3.50;3.30;;;9.20;87.00;8.60;98450.00;;;;5097630;28;20308;-79